Time;durP1;ratioP1;P1;durP2;ratioP2;P2;SDS_P1;SDS_P2;PMS_P1;PMS_P2;Temp;Humidity;BMP_temperature;BMP_pressure;BME280_temperature;BME280_humidity;BME280_pressure;Samples;Min_cycle;Max_cycle;Signal;HPM_P1;HPM_P2
2021/03/06 00:00:08;;;;;;;11.60;6.63;;;2.30;99.90;;;;;;4938756;29;20361;-82
2021/03/06 00:02:35;;;;;;;11.82;7.90;;;2.20;99.90;;;;;;4938378;29;20399;-82
2021/03/06 00:05:01;;;;;;;11.98;8.30;;;2.30;99.90;;;;;;4938381;29;20058;-83
2021/03/06 00:07:27;;;;;;;13.85;8.32;;;2.20;99.90;;;;;;4955568;29;20027;-82
2021/03/06 00:09:53;;;;;;;13.75;8.13;;;2.20;99.90;;;;;;4938299;29;20031;-83
2021/03/06 00:12:18;;;;;;;14.25;7.57;;;2.10;99.90;;;;;;4938288;29;20387;-82
2021/03/06 00:14:44;;;;;;;14.05;8.30;;;2.10;99.90;;;;;;4938192;29;20038;-82
2021/03/06 00:17:10;;;;;;;13.63;7.78;;;2.10;99.90;;;;;;4938148;29;20035;-82
2021/03/06 00:19:35;;;;;;;10.95;7.50;;;1.90;99.90;;;;;;4938111;29;20050;-82
2021/03/06 00:22:02;;;;;;;12.82;8.23;;;2.00;99.90;;;;;;4938187;29;20023;-82
2021/03/06 00:24:28;;;;;;;10.57;7.63;;;1.80;99.90;;;;;;4938073;29;20411;-82
2021/03/06 00:26:55;;;;;;;12.13;7.57;;;1.60;99.90;;;;;;4938103;29;20065;-82
2021/03/06 00:29:20;;;;;;;11.30;7.15;;;1.70;99.90;;;;;;4938049;29;20027;-82
2021/03/06 00:31:46;;;;;;;13.30;8.55;;;1.90;99.90;;;;;;4937946;29;20030;-82
2021/03/06 00:34:12;;;;;;;9.30;5.63;;;1.80;99.90;;;;;;4955234;29;20158;-82
2021/03/06 00:36:37;;;;;;;10.10;6.72;;;1.90;99.90;;;;;;4938206;29;20035;-81
2021/03/06 00:39:05;;;;;;;8.60;5.38;;;2.10;99.90;;;;;;4937893;29;20113;-81
2021/03/06 00:41:30;;;;;;;9.15;5.68;;;2.10;99.90;;;;;;4955160;29;20098;-82
2021/03/06 00:43:56;;;;;;;8.82;5.85;;;2.20;99.90;;;;;;4938188;29;20483;-82
2021/03/06 00:46:22;;;;;;;11.93;7.30;;;2.20;99.90;;;;;;4937973;29;20480;-82
2021/03/06 00:48:48;;;;;;;10.15;6.57;;;2.00;99.90;;;;;;4937715;29;20047;-82
2021/03/06 00:51:13;;;;;;;10.93;6.85;;;1.80;99.90;;;;;;4955091;29;20452;-82
2021/03/06 00:53:39;;;;;;;12.60;7.30;;;1.80;99.90;;;;;;4937925;29;20030;-82
2021/03/06 00:56:05;;;;;;;11.82;7.45;;;1.70;99.90;;;;;;4937891;29;20023;-82
2021/03/06 00:58:31;;;;;;;9.82;7.05;;;1.40;99.90;;;;;;4937812;29;20475;-81
2021/03/06 01:00:58;;;;;;;10.25;6.40;;;1.50;99.90;;;;;;4939565;29;20379;-82
2021/03/06 01:03:26;;;;;;;7.93;4.90;;;1.50;99.90;;;;;;4941547;29;20058;-82
2021/03/06 01:05:52;;;;;;;11.02;6.35;;;1.50;99.90;;;;;;4941437;29;20495;-82
2021/03/06 01:08:18;;;;;;;12.90;7.15;;;1.60;99.90;;;;;;4941390;29;20027;-82
2021/03/06 01:10:45;;;;;;;11.73;6.82;;;1.90;99.90;;;;;;4941390;29;20027;-81
2021/03/06 01:13:11;;;;;;;10.93;8.00;;;2.10;99.90;;;;;;4941300;29;20035;-82
2021/03/06 01:15:38;;;;;;;11.07;6.15;;;2.00;99.90;;;;;;4941298;29;20394;-82
2021/03/06 01:18:06;;;;;;;12.82;7.15;;;2.10;99.90;;;;;;4941139;29;20365;-82
2021/03/06 01:20:33;;;;;;;10.43;6.35;;;1.70;99.90;;;;;;4941244;29;20106;-82
2021/03/06 01:22:59;;;;;;;13.25;6.70;;;1.60;99.90;;;;;;4941127;29;20027;-82
2021/03/06 01:25:24;;;;;;;9.60;6.57;;;1.60;99.90;;;;;;4941142;29;20024;-82
2021/03/06 01:27:50;;;;;;;10.93;6.07;;;1.50;99.90;;;;;;4941149;29;20122;-82
2021/03/06 01:30:17;;;;;;;10.82;6.90;;;1.40;99.90;;;;;;4941029;29;20505;-82
2021/03/06 01:32:43;;;;;;;14.25;7.03;;;1.80;99.90;;;;;;4940899;29;20479;-82
2021/03/06 01:35:11;;;;;;;12.90;7.40;;;1.70;99.90;;;;;;4941180;29;20034;-81
2021/03/06 01:37:38;;;;;;;10.93;6.90;;;1.60;99.90;;;;;;4940800;29;20027;-81
2021/03/06 01:40:15;;;;;;;11.10;6.07;;;1.80;99.90;;;;;;4940911;29;20061;-81
2021/03/06 01:42:41;;;;;;;10.65;6.85;;;1.90;99.90;;;;;;4940883;29;20391;-81
2021/03/06 01:45:09;;;;;;;9.35;6.22;;;2.00;99.90;;;;;;4940663;29;20027;-82
2021/03/06 01:47:35;;;;;;;11.32;5.88;;;1.80;99.90;;;;;;4940693;29;20063;-82
2021/03/06 01:50:03;;;;;;;9.68;6.47;;;1.60;99.90;;;;;;4941047;29;20106;-81
2021/03/06 01:52:29;;;;;;;9.35;5.80;;;1.50;99.90;;;;;;4940612;29;20031;-82
2021/03/06 01:54:56;;;;;;;11.15;6.05;;;1.70;99.90;;;;;;4940634;29;20502;-82
2021/03/06 01:57:23;;;;;;;9.02;5.82;;;1.20;99.90;;;;;;4940421;29;20034;-82
2021/03/06 01:59:49;;;;;;;8.95;5.60;;;1.20;99.90;;;;;;4940494;29;20114;-82
2021/03/06 02:02:15;;;;;;;9.98;5.72;;;0.60;99.90;;;;;;4940483;29;20050;-82
2021/03/06 02:04:41;;;;;;;11.40;6.18;;;0.50;99.90;;;;;;4940385;29;20062;-82
2021/03/06 02:07:07;;;;;;;9.20;5.35;;;0.50;99.90;;;;;;4940441;29;20023;-82
2021/03/06 02:09:35;;;;;;;9.20;5.40;;;0.40;99.90;;;;;;4940341;29;20026;-82
2021/03/06 02:12:16;;;;;;;8.48;5.20;;;0.30;99.90;;;;;;4940029;29;20023;-81
2021/03/06 02:15:00;;;;;;;6.30;4.88;;;0.60;99.90;;;;;;4940286;29;20023;-81
2021/03/06 02:17:43;;;;;;;9.00;5.15;;;1.60;99.90;;;;;;4940080;29;20070;-82
2021/03/06 02:20:36;;;;;;;6.97;5.07;;;1.80;99.90;;;;;;4940207;29;20031;-82
2021/03/06 02:23:27;;;;;;;7.10;4.93;;;1.90;99.90;;;;;;4940079;29;20024;-82
2021/03/06 02:26:10;;;;;;;9.40;4.95;;;1.80;99.90;;;;;;4957312;29;20047;-82
2021/03/06 02:28:46;;;;;;;7.40;4.63;;;2.10;99.90;;;;;;4940003;29;20031;-81
2021/03/06 02:31:14;;;;;;;9.13;4.93;;;2.10;99.90;;;;;;4939887;28;20027;-81
2021/03/06 02:33:44;;;;;;;7.43;4.90;;;1.60;99.90;;;;;;4957080;29;20079;-81
2021/03/06 02:36:15;;;;;;;7.65;5.00;;;1.50;99.90;;;;;;4939857;29;20027;-81
2021/03/06 02:38:41;;;;;;;8.00;4.70;;;1.00;99.90;;;;;;4939695;29;20059;-82
2021/03/06 02:41:10;;;;;;;7.30;4.57;;;1.10;99.90;;;;;;4939707;29;20051;-82
2021/03/06 02:43:36;;;;;;;6.70;4.43;;;1.40;99.90;;;;;;4939628;29;20055;-82
2021/03/06 02:46:06;;;;;;;8.13;4.25;;;1.80;99.90;;;;;;4939640;29;20061;-81
2021/03/06 02:48:34;;;;;;;8.15;4.60;;;2.30;99.90;;;;;;4956706;29;20043;-81
2021/03/06 02:50:59;;;;;;;8.43;5.03;;;2.10;99.90;;;;;;4939527;29;20070;-82
2021/03/06 02:53:25;;;;;;;16.80;6.80;;;1.50;99.90;;;;;;4939487;29;20476;-81
2021/03/06 02:55:51;;;;;;;13.18;6.90;;;1.30;99.90;;;;;;4939385;29;20035;-81
2021/03/06 02:58:33;;;;;;;10.50;6.50;;;1.10;99.90;;;;;;4939388;29;20028;-81
2021/03/06 03:01:07;;;;;;;8.90;5.68;;;1.10;99.90;;;;;;4956648;29;20475;-81
2021/03/06 03:03:51;;;;;;;10.32;5.50;;;1.00;99.90;;;;;;4939404;29;20024;-81
2021/03/06 03:06:34;;;;;;;8.35;5.05;;;1.00;99.90;;;;;;4939242;29;20034;-81
2021/03/06 03:09:21;;;;;;;9.82;5.32;;;1.20;99.90;;;;;;4939261;29;20114;-81
2021/03/06 03:12:32;;;;;;;8.60;5.13;;;0.80;99.90;;;;;;4939165;29;20027;-82
2021/03/06 03:15:03;;;;;;;7.95;4.90;;;0.70;99.90;;;;;;4937086;29;20130;-82
2021/03/06 03:17:42;;;;;;;8.75;4.75;;;1.00;99.90;;;;;;4939084;29;20614;-82
2021/03/06 03:20:23;;;;;;;7.40;4.53;;;0.90;99.90;;;;;;4956196;29;20024;-81
2021/03/06 03:22:55;;;;;;;6.53;4.68;;;1.00;99.90;;;;;;4938489;29;20495;-82
2021/03/06 03:25:21;;;;;;;8.82;4.90;;;1.00;99.90;;;;;;4939399;29;20023;-82
2021/03/06 03:27:48;;;;;;;6.10;4.22;;;1.10;99.90;;;;;;4938928;29;20031;-81
2021/03/06 03:30:17;;;;;;;7.80;4.60;;;0.60;99.90;;;;;;4939282;29;20053;-81
2021/03/06 03:32:45;;;;;;;8.32;4.78;;;0.40;99.90;;;;;;4956191;28;20128;-82
2021/03/06 03:35:14;;;;;;;8.27;4.97;;;0.40;99.90;;;;;;4938815;29;20023;-82
2021/03/06 03:37:42;;;;;;;7.78;4.93;;;0.50;99.90;;;;;;4938684;29;20144;-82
2021/03/06 03:40:11;;;;;;;10.18;5.10;;;0.20;99.90;;;;;;4938673;29;20074;-82
2021/03/06 03:42:38;;;;;;;6.00;4.15;;;0.20;99.90;;;;;;4955815;29;20094;-82
2021/03/06 03:45:06;;;;;;;7.10;4.70;;;0.70;99.90;;;;;;4938545;29;20075;-83
2021/03/06 03:47:35;;;;;;;6.50;4.43;;;0.90;99.90;;;;;;4938606;29;20122;-81
2021/03/06 03:50:01;;;;;;;8.00;4.40;;;0.50;99.90;;;;;;4938971;29;20490;-81
2021/03/06 03:52:27;;;;;;;7.68;4.25;;;0.30;99.90;;;;;;4938490;29;20035;-82
2021/03/06 03:54:53;;;;;;;5.97;4.25;;;0.30;99.90;;;;;;4938448;29;20027;-81
2021/03/06 03:57:19;;;;;;;6.97;4.38;;;0.50;99.90;;;;;;4938307;29;20550;-82
2021/03/06 03:59:44;;;;;;;6.50;3.80;;;0.80;99.90;;;;;;4938458;29;20422;-82
2021/03/06 04:02:10;;;;;;;7.03;4.32;;;1.10;99.90;;;;;;4938437;29;20077;-82
2021/03/06 04:04:36;;;;;;;6.15;4.32;;;1.00;99.90;;;;;;4938356;29;20033;-82
2021/03/06 04:07:02;;;;;;;7.82;4.35;;;0.50;99.90;;;;;;4938351;29;20051;-82
2021/03/06 04:09:28;;;;;;;7.45;4.15;;;0.30;99.90;;;;;;4938324;29;20530;-81
2021/03/06 04:11:54;;;;;;;7.80;4.18;;;0.40;99.90;;;;;;4938258;29;20376;-82
2021/03/06 04:14:19;;;;;;;5.38;3.90;;;0.40;99.90;;;;;;4938273;29;20024;-82
2021/03/06 04:16:46;;;;;;;4.97;4.18;;;0.60;99.90;;;;;;4938257;29;20094;-82
2021/03/06 04:19:12;;;;;;;7.18;4.57;;;1.10;99.90;;;;;;4938088;29;20034;-82
2021/03/06 04:21:37;;;;;;;7.43;4.38;;;0.80;99.90;;;;;;4938144;29;20020;-82
2021/03/06 04:24:03;;;;;;;7.32;4.25;;;0.40;99.90;;;;;;4938181;29;20533;-82
2021/03/06 04:26:29;;;;;;;5.90;4.28;;;0.10;99.90;;;;;;4938477;29;20098;-82
2021/03/06 04:28:55;;;;;;;7.03;4.68;;;-0.20;99.90;;;;;;4938025;29;20069;-82
2021/03/06 04:31:21;;;;;;;6.85;4.10;;;-0.10;99.90;;;;;;4938064;28;20086;-82
2021/03/06 04:33:46;;;;;;;6.82;4.72;;;-0.20;99.90;;;;;;4938097;29;20034;-82
2021/03/06 04:36:12;;;;;;;7.05;4.43;;;-0.20;99.90;;;;;;4940442;29;20114;-82
2021/03/06 04:38:38;;;;;;;6.28;4.20;;;-0.50;99.90;;;;;;4942236;29;20023;-82
2021/03/06 04:41:03;;;;;;;8.13;4.68;;;-0.40;99.90;;;;;;4941988;29;20032;-82
2021/03/06 04:43:29;;;;;;;6.03;3.97;;;0.20;99.90;;;;;;4941896;29;20038;-82
2021/03/06 04:45:55;;;;;;;5.85;4.68;;;0.50;99.90;;;;;;4941866;29;20110;-82
2021/03/06 04:48:20;;;;;;;5.93;4.25;;;0.30;99.90;;;;;;4941688;29;20483;-82
2021/03/06 04:50:46;;;;;;;7.05;4.53;;;0.00;99.90;;;;;;4941849;29;20483;-82
2021/03/06 04:53:12;;;;;;;9.27;4.35;;;0.10;99.90;;;;;;4958920;29;20031;-82
2021/03/06 04:55:38;;;;;;;5.78;4.13;;;0.00;99.90;;;;;;4941616;29;20031;-82
2021/03/06 04:58:03;;;;;;;5.18;4.00;;;-0.30;99.90;;;;;;4941564;29;20027;-82
2021/03/06 05:00:31;;;;;;;6.57;4.57;;;-0.20;99.90;;;;;;4941605;29;20023;-82
2021/03/06 05:02:57;;;;;;;5.90;4.45;;;-0.30;99.90;;;;;;4958739;29;20019;-82
2021/03/06 05:05:23;;;;;;;7.00;4.57;;;0.10;99.90;;;;;;4941517;29;20035;-82
2021/03/06 05:07:49;;;;;;;5.75;4.20;;;0.60;99.90;;;;;;4941407;29;20031;-82
2021/03/06 05:10:15;;;;;;;6.47;4.03;;;0.50;99.90;;;;;;4941455;29;20384;-82
2021/03/06 05:12:40;;;;;;;4.60;3.45;;;0.60;99.90;;;;;;4941330;29;20031;-82
2021/03/06 05:15:07;;;;;;;9.73;4.40;;;1.10;99.90;;;;;;4941268;29;20039;-82
2021/03/06 05:17:33;;;;;;;5.50;3.95;;;1.40;99.90;;;;;;4941062;29;20062;-83
2021/03/06 05:19:59;;;;;;;6.72;4.57;;;1.00;99.90;;;;;;4958462;29;20454;-82
2021/03/06 05:22:25;;;;;;;6.78;4.38;;;0.80;99.90;;;;;;4958384;29;20038;-82
2021/03/06 05:24:51;;;;;;;7.40;4.28;;;-0.20;99.90;;;;;;4941123;29;20395;-83
2021/03/06 05:27:17;;;;;;;8.15;4.10;;;0.00;99.90;;;;;;4941063;29;20027;-83
2021/03/06 05:29:43;;;;;;;6.47;3.95;;;-0.10;99.90;;;;;;4941046;29;20034;-82
2021/03/06 05:32:09;;;;;;;7.88;4.32;;;0.00;99.90;;;;;;4940923;29;20027;-82
2021/03/06 05:34:35;;;;;;;8.05;4.20;;;0.10;99.90;;;;;;4940950;29;20391;-83
2021/03/06 05:37:04;;;;;;;5.65;4.32;;;-0.30;99.90;;;;;;4940863;29;20082;-82
2021/03/06 05:39:30;;;;;;;7.38;4.35;;;-0.30;99.90;;;;;;4940873;29;20074;-82
2021/03/06 05:41:56;;;;;;;6.28;4.10;;;-0.20;99.90;;;;;;4940803;29;20062;-82
2021/03/06 05:44:22;;;;;;;5.80;3.97;;;0.10;99.90;;;;;;4940815;29;20027;-82
2021/03/06 05:46:48;;;;;;;9.15;3.70;;;-0.30;99.90;;;;;;4940205;29;20391;-82
2021/03/06 05:49:14;;;;;;;5.90;4.07;;;-0.30;99.90;;;;;;4940587;29;20094;-82
2021/03/06 05:51:40;;;;;;;8.65;4.68;;;-0.40;99.90;;;;;;4957903;29;20439;-82
2021/03/06 05:54:11;;;;;;;7.22;3.85;;;-0.50;99.90;;;;;;4940641;29;20391;-82
2021/03/06 05:56:43;;;;;;;8.27;4.10;;;0.00;99.90;;;;;;4957780;29;20034;-82
2021/03/06 05:59:13;;;;;;;5.28;3.63;;;0.60;99.90;;;;;;4940518;29;20051;-82
2021/03/06 06:01:41;;;;;;;5.13;3.72;;;0.60;99.90;;;;;;4940452;29;20024;-82
2021/03/06 06:04:07;;;;;;;7.85;4.22;;;0.70;99.90;;;;;;4940429;29;20078;-82
2021/03/06 06:06:35;;;;;;;5.15;3.83;;;1.10;99.90;;;;;;4941250;29;20019;-83
2021/03/06 06:09:04;;;;;;;7.40;4.32;;;0.70;99.90;;;;;;4940392;29;20161;-82
2021/03/06 06:11:31;;;;;;;6.30;4.15;;;0.40;99.90;;;;;;4940291;29;20059;-83
2021/03/06 06:13:58;;;;;;;4.90;3.80;;;0.40;99.90;;;;;;4940324;29;20533;-82
2021/03/06 06:16:27;;;;;;;7.18;3.80;;;0.00;99.90;;;;;;4940235;29;20034;-82
2021/03/06 06:18:54;;;;;;;5.15;4.07;;;0.10;99.90;;;;;;4940134;29;20027;-82
2021/03/06 06:21:46;;;;;;;6.93;4.55;;;0.50;99.90;;;;;;4940088;29;20475;-82
2021/03/06 06:24:13;;;;;;;10.20;4.55;;;0.30;99.90;;;;;;4940099;29;20047;-82
2021/03/06 06:26:40;;;;;;;5.18;4.35;;;0.10;99.90;;;;;;4957274;29;20058;-82
2021/03/06 06:29:06;;;;;;;9.15;4.97;;;-0.20;99.90;;;;;;4940038;29;20114;-82
2021/03/06 06:31:32;;;;;;;6.20;4.43;;;-0.30;99.90;;;;;;4939858;29;20023;-82
2021/03/06 06:33:58;;;;;;;7.43;4.88;;;-0.50;99.90;;;;;;4939840;29;20027;-82
2021/03/06 06:36:50;;;;;;;6.38;4.40;;;-0.30;99.90;;;;;;4939880;29;20035;-82
2021/03/06 06:39:28;;;;;;;7.30;5.00;;;-0.10;99.90;;;;;;4937179;29;20046;-82
2021/03/06 06:41:59;;;;;;;9.93;5.80;;;0.40;99.90;;;;;;4939703;29;20059;-81
2021/03/06 06:44:27;;;;;;;8.25;4.80;;;0.30;99.90;;;;;;4939663;29;20023;-81
2021/03/06 06:46:53;;;;;;;12.60;8.00;;;-0.10;99.90;;;;;;4956873;29;20058;-81
2021/03/06 06:49:19;;;;;;;20.65;9.82;;;-0.20;99.90;;;;;;4939381;29;20051;-81
2021/03/06 06:52:06;;;;;;;14.30;7.68;;;0.00;99.90;;;;;;4939451;29;20023;-81
2021/03/06 06:54:33;;;;;;;14.45;8.65;;;0.40;99.90;;;;;;4939574;29;20054;-81
2021/03/06 06:57:14;;;;;;;11.30;6.85;;;1.10;99.90;;;;;;4939443;29;20031;-82
2021/03/06 06:59:51;;;;;;;17.52;8.85;;;1.30;99.90;;;;;;4938773;29;20106;-82
2021/03/06 07:02:17;;;;;;;21.95;8.93;;;1.40;99.90;;;;;;4939412;29;20110;-82
2021/03/06 07:05:05;;;;;;;15.18;9.25;;;1.50;99.90;;;;;;4939330;29;20055;-82
2021/03/06 07:07:42;;;;;;;18.80;10.25;;;1.50;99.90;;;;;;4940029;29;20528;-82
2021/03/06 07:10:11;;;;;;;12.95;8.60;;;1.10;99.90;;;;;;4939184;29;20114;-82
2021/03/06 07:12:40;;;;;;;14.93;8.55;;;0.90;99.90;;;;;;4939158;29;20110;-82
2021/03/06 07:15:14;;;;;;;17.50;8.52;;;0.60;99.90;;;;;;4939121;29;20023;-82
2021/03/06 07:17:43;;;;;;;16.23;10.45;;;0.50;99.90;;;;;;4939032;29;20066;-82
2021/03/06 07:20:22;;;;;;;17.98;12.38;;;0.50;99.90;;;;;;4956240;29;20487;-82
2021/03/06 07:22:52;;;;;;;14.02;8.98;;;0.50;99.90;;;;;;4938972;29;20053;-82
2021/03/06 07:25:18;;;;;;;11.93;8.32;;;0.70;99.90;;;;;;4956412;29;20031;-82
2021/03/06 07:27:44;;;;;;;11.43;6.80;;;0.80;99.90;;;;;;4938839;29;20031;-82
2021/03/06 07:30:12;;;;;;;9.85;6.65;;;0.90;99.90;;;;;;4938857;29;20023;-82
2021/03/06 07:32:40;;;;;;;10.70;6.80;;;1.30;99.90;;;;;;4938747;29;20030;-82
2021/03/06 07:35:08;;;;;;;11.63;6.68;;;1.30;99.90;;;;;;4938717;29;20046;-82
2021/03/06 07:37:35;;;;;;;12.70;6.82;;;1.40;99.90;;;;;;4938794;29;20042;-82
2021/03/06 07:40:13;;;;;;;9.32;6.60;;;1.70;99.90;;;;;;4938702;29;20027;-83
2021/03/06 07:42:46;;;;;;;12.23;6.53;;;1.80;99.90;;;;;;4938741;29;20031;-82
2021/03/06 07:45:15;;;;;;;10.65;6.30;;;1.80;99.90;;;;;;4938539;29;20483;-82
2021/03/06 07:47:43;;;;;;;9.13;6.38;;;2.10;99.90;;;;;;4938391;29;20023;-82
2021/03/06 07:50:30;;;;;;;10.07;6.40;;;2.40;99.90;;;;;;4938373;29;20499;-82
2021/03/06 07:52:57;;;;;;;9.38;5.78;;;2.60;99.90;;;;;;4938479;29;20054;-82
2021/03/06 07:55:27;;;;;;;9.50;5.07;;;3.00;99.90;;;;;;4938491;29;20023;-82
2021/03/06 07:58:01;;;;;;;8.80;6.00;;;3.20;99.90;;;;;;4938412;29;20395;-83
2021/03/06 08:00:42;;;;;;;8.35;5.68;;;3.10;99.90;;;;;;4938337;29;20509;-83
2021/03/06 08:03:27;;;;;;;11.32;5.88;;;3.20;99.90;;;;;;4938291;29;20443;-83
2021/03/06 08:06:01;;;;;;;7.28;5.25;;;3.70;99.90;;;;;;4955573;29;20031;-83
2021/03/06 08:08:32;;;;;;;10.40;6.25;;;3.80;99.90;;;;;;4955384;29;20033;-83
2021/03/06 08:11:10;;;;;;;9.15;5.80;;;3.60;99.90;;;;;;4938883;29;20430;-83
2021/03/06 08:13:47;;;;;;;10.13;6.25;;;3.30;99.90;;;;;;4955440;29;20023;-83
2021/03/06 08:16:22;;;;;;;8.82;5.68;;;3.10;99.90;;;;;;4938151;29;20027;-83
2021/03/06 08:18:53;;;;;;;10.30;5.75;;;3.20;99.90;;;;;;4938196;29;20023;-83
2021/03/06 08:21:39;;;;;;;8.20;5.40;;;3.50;99.90;;;;;;4955338;29;20095;-83
2021/03/06 08:24:14;;;;;;;7.57;5.55;;;3.80;99.90;;;;;;4938164;29;20023;-82
2021/03/06 08:26:52;;;;;;;8.07;5.60;;;3.80;99.90;;;;;;4937999;29;20065;-83
2021/03/06 08:29:27;;;;;;;11.35;5.85;;;4.00;99.90;;;;;;4937996;29;20039;-83
2021/03/06 08:31:57;;;;;;;8.60;5.78;;;4.30;99.90;;;;;;4937974;29;20514;-86
2021/03/06 08:34:30;;;;;;;9.38;6.20;;;4.30;99.90;;;;;;4938057;29;20502;-85
2021/03/06 08:39:47;;;;;;;11.15;5.15;;;4.70;99.90;;;;;;4955267;29;20023;-86
2021/03/06 08:42:21;;;;;;;10.68;6.65;;;4.30;99.90;;;;;;4955188;29;20030;-86
2021/03/06 08:44:47;;;;;;;;;;;4.30;99.90;;;;;;4938445;29;20027;-86
2021/03/06 08:47:25;;;;;;;11.82;6.40;;;4.60;99.90;;;;;;4937888;29;19957;-86
2021/03/06 08:49:56;;;;;;;13.65;6.35;;;4.70;99.90;;;;;;4938242;29;20047;-86
2021/03/06 08:52:24;;;;;;;9.25;6.28;;;5.00;99.90;;;;;;4937794;29;20074;-86
2021/03/06 08:54:50;;;;;;;10.27;6.53;;;5.10;99.90;;;;;;4937869;29;20114;-86
2021/03/06 08:57:39;;;;;;;8.55;6.00;;;5.20;99.90;;;;;;4937820;29;20514;-85
2021/03/06 09:00:16;;;;;;;10.70;7.03;;;5.30;99.90;;;;;;4955108;29;20030;-86
2021/03/06 09:02:42;;;;;;;9.52;6.60;;;5.40;99.90;;;;;;4938150;29;20027;-87
2021/03/06 09:05:14;;;;;;;10.80;6.28;;;5.60;99.90;;;;;;4937697;29;20078;-86
2021/03/06 09:07:47;;;;;;;10.23;6.53;;;5.50;99.90;;;;;;4955156;29;20031;-85
2021/03/06 09:10:20;;;;;;;12.88;6.57;;;5.60;99.90;;;;;;4937793;29;20027;-86
2021/03/06 09:12:51;;;;;;;8.57;6.53;;;5.70;99.90;;;;;;4937743;29;20494;-86
2021/03/06 09:15:26;;;;;;;15.13;6.72;;;5.70;99.90;;;;;;4937820;29;20391;-85
2021/03/06 09:17:52;;;;;;;8.90;6.63;;;5.70;99.90;;;;;;4937522;29;20035;-85
2021/03/06 09:20:19;;;;;;;9.60;6.43;;;5.80;99.90;;;;;;4938012;28;20058;-85
2021/03/06 09:22:50;;;;;;;8.60;5.82;;;6.00;99.90;;;;;;4940459;29;20035;-85
2021/03/06 09:25:28;;;;;;;8.55;6.35;;;5.90;99.90;;;;;;4941228;29;20023;-85
2021/03/06 09:27:54;;;;;;;8.93;6.10;;;6.10;99.90;;;;;;4941236;29;20086;-87
2021/03/06 09:30:26;;;;;;;8.15;5.97;;;6.20;99.90;;;;;;4941156;29;20031;-84
2021/03/06 09:32:52;;;;;;;8.65;5.70;;;6.00;99.90;;;;;;4958454;28;20420;-85
2021/03/06 09:35:19;;;;;;;9.75;6.18;;;6.10;99.90;;;;;;4940918;29;20121;-85
2021/03/06 09:37:45;;;;;;;9.85;5.82;;;6.30;99.90;;;;;;4940901;29;20083;-85
2021/03/06 09:40:22;;;;;;;8.38;5.93;;;6.60;99.90;;;;;;4940884;29;20034;-85
2021/03/06 09:42:52;;;;;;;14.23;6.30;;;6.50;99.90;;;;;;4940980;29;20031;-85
2021/03/06 09:45:18;;;;;;;7.70;5.30;;;6.60;99.90;;;;;;4958009;29;20028;-85
2021/03/06 09:47:46;;;;;;;13.57;6.30;;;6.60;99.90;;;;;;4940958;29;20030;-85
2021/03/06 09:50:14;;;;;;;9.15;5.38;;;6.90;99.90;;;;;;4957744;29;20062;-85
2021/03/06 09:52:39;;;;;;;8.00;5.45;;;7.10;99.90;;;;;;4940678;29;20019;-83
2021/03/06 09:55:23;;;;;;;9.88;5.63;;;7.10;99.90;;;;;;4958203;29;20083;-85
2021/03/06 09:57:49;;;;;;;12.17;5.80;;;7.00;99.90;;;;;;4957824;29;20428;-85
2021/03/06 10:00:23;;;;;;;6.68;5.20;;;7.20;99.90;;;;;;4940568;29;20321;-85
2021/03/06 10:02:52;;;;;;;11.02;5.05;;;7.10;99.90;;;;;;4940396;29;20615;-85
2021/03/06 10:05:24;;;;;;;7.38;4.82;;;7.50;99.90;;;;;;4957628;29;20070;-85
2021/03/06 10:07:54;;;;;;;11.23;4.97;;;7.60;99.90;;;;;;4940633;29;20055;-85
2021/03/06 10:10:24;;;;;;;5.75;4.57;;;7.70;99.40;;;;;;4941252;29;20110;-85
2021/03/06 10:12:51;;;;;;;7.95;4.93;;;7.70;99.80;;;;;;4940364;29;20023;-85
2021/03/06 10:15:17;;;;;;;7.13;5.35;;;7.70;99.10;;;;;;4940266;29;20501;-85
2021/03/06 10:17:43;;;;;;;7.32;4.78;;;7.70;97.70;;;;;;4940281;29;20104;-84
2021/03/06 10:20:09;;;;;;;8.90;5.80;;;7.90;98.30;;;;;;4940179;29;20074;-85
2021/03/06 10:22:47;;;;;;;7.88;4.88;;;8.10;97.10;;;;;;4940128;29;20027;-85
2021/03/06 10:25:27;;;;;;;6.85;4.78;;;8.10;96.90;;;;;;4940373;29;20031;-85
2021/03/06 10:27:53;;;;;;;10.02;6.03;;;8.30;96.90;;;;;;4939940;29;20035;-85
2021/03/06 10:30:19;;;;;;;6.43;4.40;;;8.60;97.20;;;;;;4939943;29;20047;-85
2021/03/06 10:32:46;;;;;;;9.75;5.05;;;8.40;95.50;;;;;;4939698;29;20530;-86
2021/03/06 10:35:37;;;;;;;9.15;4.65;;;8.70;96.30;;;;;;4939823;29;20062;-85
2021/03/06 10:38:08;;;;;;;5.28;4.22;;;8.70;94.90;;;;;;4939884;29;20435;-83
2021/03/06 10:40:49;;;;;;;7.85;4.43;;;8.70;94.30;;;;;;4939805;29;20031;-83
2021/03/06 10:43:30;;;;;;;6.60;4.00;;;9.00;94.30;;;;;;4939779;29;20110;-84
2021/03/06 10:46:19;;;;;;;11.40;4.85;;;9.00;93.90;;;;;;4939703;29;20023;-83
2021/03/06 10:48:53;;;;;;;5.30;4.25;;;8.90;90.70;;;;;;4939428;29;20106;-84
2021/03/06 10:51:19;;;;;;;;;;;9.00;91.00;;;;;;4940256;29;20027;-84
2021/03/06 10:53:59;;;;;;;7.72;4.32;;;9.20;90.00;;;;;;4939515;29;20079;-83
2021/03/06 10:56:25;;;;;;;7.00;3.88;;;9.50;88.90;;;;;;4956993;29;20083;-84
2021/03/06 10:58:51;;;;;;;6.35;3.95;;;9.60;87.30;;;;;;4939579;29;20411;-84
2021/03/06 11:01:16;;;;;;;6.10;4.03;;;9.90;86.50;;;;;;4939331;29;20035;-84
2021/03/06 11:03:44;;;;;;;6.45;4.20;;;10.30;85.20;;;;;;4939311;29;20038;-84
2021/03/06 11:06:11;;;;;;;7.10;3.63;;;10.20;83.20;;;;;;4939300;29;20062;-83
2021/03/06 11:08:39;;;;;;;5.20;3.75;;;10.50;82.10;;;;;;4939114;29;20031;-84
2021/03/06 11:11:07;;;;;;;4.43;3.47;;;10.60;77.60;;;;;;4939212;29;20615;-84
2021/03/06 11:13:48;;;;;;;8.13;3.17;;;10.90;79.10;;;;;;4939102;29;20027;-84
2021/03/06 11:16:14;;;;;;;6.28;3.60;;;10.80;78.30;;;;;;4939142;29;20023;-84
2021/03/06 11:18:42;;;;;;;7.18;3.03;;;10.90;72.10;;;;;;4939115;29;20528;-84
2021/03/06 11:21:13;;;;;;;6.85;3.65;;;10.80;72.80;;;;;;4939072;29;20027;-84
2021/03/06 11:23:40;;;;;;;6.97;3.15;;;11.00;71.60;;;;;;4939001;29;20038;-84
2021/03/06 11:26:06;;;;;;;5.53;3.03;;;11.30;70.40;;;;;;4956233;29;20031;-84
2021/03/06 11:28:33;;;;;;;5.10;3.00;;;11.40;70.60;;;;;;4938844;29;20030;-83
2021/03/06 11:31:04;;;;;;;4.88;2.88;;;11.30;70.10;;;;;;4939156;29;20383;-83
2021/03/06 11:33:30;;;;;;;6.57;3.50;;;11.40;69.50;;;;;;4938948;29;20078;-84
2021/03/06 11:35:56;;;;;;;7.40;3.47;;;11.50;66.90;;;;;;4938762;29;20054;-83
2021/03/06 11:38:23;;;;;;;6.55;3.33;;;11.50;66.40;;;;;;4938830;29;20391;-84
2021/03/06 11:40:52;;;;;;;5.10;3.60;;;12.00;68.20;;;;;;4938679;29;20038;-83
2021/03/06 11:43:18;;;;;;;4.50;3.33;;;12.20;65.00;;;;;;4938716;29;20395;-84
2021/03/06 11:45:45;;;;;;;6.65;3.28;;;12.50;64.10;;;;;;4938220;29;20483;-85
2021/03/06 11:48:11;;;;;;;7.18;3.15;;;12.20;64.10;;;;;;4938262;29;20070;-84
2021/03/06 11:50:39;;;;;;;6.75;3.17;;;12.40;61.50;;;;;;4938478;29;20031;-84
2021/03/06 11:53:05;;;;;;;6.68;3.08;;;12.60;61.60;;;;;;4938487;29;20023;-84
2021/03/06 11:55:32;;;;;;;3.67;2.78;;;12.50;60.40;;;;;;4938444;29;20476;-85
2021/03/06 11:58:01;;;;;;;4.93;3.10;;;12.40;59.40;;;;;;4922817;29;20058;-84
2021/03/06 12:00:29;;;;;;;5.25;2.70;;;12.70;60.80;;;;;;4938683;29;20054;-84
2021/03/06 12:02:55;;;;;;;4.60;2.97;;;12.80;56.40;;;;;;4938409;29;20039;-84
2021/03/06 12:05:21;;;;;;;4.70;2.95;;;13.10;56.50;;;;;;4938597;29;20365;-84
2021/03/06 12:07:47;;;;;;;3.60;2.45;;;13.40;57.00;;;;;;4938283;29;20027;-83
2021/03/06 12:10:16;;;;;;;4.85;2.50;;;13.40;55.00;;;;;;4938313;29;20475;-83
2021/03/06 12:12:43;;;;;;;5.88;2.50;;;13.30;54.70;;;;;;4938299;29;20027;-84
2021/03/06 12:15:10;;;;;;;3.92;2.42;;;13.80;55.20;;;;;;4955510;29;20027;-84
2021/03/06 12:17:36;;;;;;;3.63;2.35;;;13.80;53.70;;;;;;4938210;29;20045;-85
2021/03/06 12:20:04;;;;;;;3.35;1.98;;;14.00;51.80;;;;;;4922254;29;20039;-84
2021/03/06 12:22:30;;;;;;;4.63;2.35;;;14.20;51.90;;;;;;4938082;29;20054;-84
2021/03/06 12:24:55;;;;;;;3.17;2.30;;;14.20;51.30;;;;;;4938620;29;20047;-84
2021/03/06 12:27:21;;;;;;;4.90;2.40;;;14.00;50.90;;;;;;4938243;29;20019;-83
2021/03/06 12:29:47;;;;;;;3.28;2.22;;;13.60;51.30;;;;;;4938035;29;20490;-84
2021/03/06 12:32:13;;;;;;;7.47;2.28;;;14.10;50.50;;;;;;4938003;29;20434;-84
2021/03/06 12:34:39;;;;;;;4.15;2.15;;;14.40;50.10;;;;;;4937982;29;20023;-85
2021/03/06 12:37:06;;;;;;;5.57;2.17;;;14.50;48.10;;;;;;4938039;29;20031;-85
2021/03/06 12:39:32;;;;;;;4.80;2.40;;;15.00;48.10;;;;;;4937977;29;20024;-85
2021/03/06 12:41:58;;;;;;;5.75;2.22;;;15.40;46.70;;;;;;4938217;29;20052;-84
2021/03/06 12:44:25;;;;;;;3.70;2.20;;;15.30;46.10;;;;;;4937847;29;20027;-84
2021/03/06 12:46:50;;;;;;;3.85;1.95;;;15.40;45.50;;;;;;4937898;29;20023;-84
2021/03/06 12:49:18;;;;;;;3.03;2.00;;;15.30;45.80;;;;;;4937660;29;20539;-84
2021/03/06 12:51:44;;;;;;;2.70;1.83;;;15.80;45.40;;;;;;4937856;29;20049;-84
2021/03/06 12:54:10;;;;;;;4.70;2.40;;;15.80;44.60;;;;;;4937895;29;20036;-83
2021/03/06 12:56:36;;;;;;;4.13;2.10;;;15.20;44.30;;;;;;4939015;29;20501;-84
2021/03/06 12:59:02;;;;;;;2.72;1.80;;;15.20;44.60;;;;;;4941498;29;20027;-84
2021/03/06 13:01:30;;;;;;;3.08;2.00;;;15.80;45.50;;;;;;4941452;29;20027;-84
2021/03/06 13:03:56;;;;;;;3.80;1.90;;;16.20;43.60;;;;;;4941494;29;20475;-84
2021/03/06 13:06:22;;;;;;;5.05;1.80;;;16.40;42.30;;;;;;4941606;29;20026;-84